createdAt,value
2018-11-10T00:01:00.000Z,98616
2018-11-10T00:06:00.000Z,98619
2018-11-10T00:11:00.000Z,98612
2018-11-10T00:16:00.000Z,98613
2018-11-10T00:21:00.000Z,98625
2018-11-10T00:26:00.000Z,98620
2018-11-10T00:31:00.000Z,98628
2018-11-10T00:36:00.000Z,98628
2018-11-10T00:41:00.000Z,98630
2018-11-10T00:46:00.000Z,98634
2018-11-10T00:51:00.000Z,98643
2018-11-10T00:56:00.000Z,98660
2018-11-10T01:01:00.000Z,98645
2018-11-10T01:06:00.000Z,98640
2018-11-10T01:11:00.000Z,98625
2018-11-10T01:16:00.000Z,98629
2018-11-10T01:21:00.000Z,98638
2018-11-10T01:26:00.000Z,98623
2018-11-10T01:31:00.000Z,98623
2018-11-10T01:36:00.000Z,98629
2018-11-10T01:41:00.000Z,98635
2018-11-10T01:46:00.000Z,98634
2018-11-10T01:51:00.000Z,98624
2018-11-10T01:56:00.000Z,98624
2018-11-10T02:01:00.000Z,98629
2018-11-10T02:06:00.000Z,98612
2018-11-10T02:11:00.000Z,98618
2018-11-10T02:17:00.000Z,98603
2018-11-10T02:22:00.000Z,98610
2018-11-10T02:27:00.000Z,98599
2018-11-10T02:32:00.000Z,98595
2018-11-10T02:37:00.000Z,98593
2018-11-10T02:42:00.000Z,98575
2018-11-10T02:47:00.000Z,98569
2018-11-10T02:52:00.000Z,98573
2018-11-10T02:57:00.000Z,98575
2018-11-10T03:02:00.000Z,98575
2018-11-10T03:07:00.000Z,98565
2018-11-10T03:12:00.000Z,98562
2018-11-10T03:17:00.000Z,98566
2018-11-10T03:22:00.000Z,98560
2018-11-10T03:27:00.000Z,98548
2018-11-10T03:32:00.000Z,98542
2018-11-10T03:37:00.000Z,98542
2018-11-10T03:42:00.000Z,98529
2018-11-10T03:47:00.000Z,98518
2018-11-10T03:52:00.000Z,98501
2018-11-10T03:57:00.000Z,98516
2018-11-10T04:02:00.000Z,98514
2018-11-10T04:07:00.000Z,98530
2018-11-10T04:12:00.000Z,98530
2018-11-10T04:17:00.000Z,98516
2018-11-10T04:22:00.000Z,98525
2018-11-10T04:27:00.000Z,98514
2018-11-10T04:32:00.000Z,98524
2018-11-10T04:37:00.000Z,98521
2018-11-10T04:42:00.000Z,98528
2018-11-10T04:47:00.000Z,98521
2018-11-10T04:52:00.000Z,98526
2018-11-10T04:57:00.000Z,98528
2018-11-10T05:02:00.000Z,98535
2018-11-10T05:07:00.000Z,98545
2018-11-10T05:12:00.000Z,98542
2018-11-10T05:17:00.000Z,98537
2018-11-10T05:22:00.000Z,98543
2018-11-10T05:27:00.000Z,98533
2018-11-10T05:32:00.000Z,98526
2018-11-10T05:37:00.000Z,98535
2018-11-10T05:42:00.000Z,98544
2018-11-10T05:47:00.000Z,98539
2018-11-10T05:52:00.000Z,98530
2018-11-10T05:57:00.000Z,98522
2018-11-10T06:02:00.000Z,98528
2018-11-10T06:07:00.000Z,98523
2018-11-10T06:12:00.000Z,98532
2018-11-10T06:17:00.000Z,98535
2018-11-10T06:22:00.000Z,98533
2018-11-10T06:27:00.000Z,98537
2018-11-10T06:32:00.000Z,98547
2018-11-10T06:37:00.000Z,98550
2018-11-10T06:42:00.000Z,98562
2018-11-10T06:47:00.000Z,98543
2018-11-10T06:52:00.000Z,98555
2018-11-10T06:57:00.000Z,98554
2018-11-10T07:02:00.000Z,98562
2018-11-10T07:07:00.000Z,98554
2018-11-10T07:12:00.000Z,98559
2018-11-10T07:17:00.000Z,98546
2018-11-10T07:22:00.000Z,98559
2018-11-10T07:27:00.000Z,98560
2018-11-10T07:32:00.000Z,98552
2018-11-10T07:37:00.000Z,98543
2018-11-10T07:42:00.000Z,98541
2018-11-10T07:47:00.000Z,98552
2018-11-10T07:52:00.000Z,98560
2018-11-10T07:57:00.000Z,98551
2018-11-10T08:02:00.000Z,98556
2018-11-10T08:07:00.000Z,98556
2018-11-10T08:12:00.000Z,98551
2018-11-10T08:17:00.000Z,98548
2018-11-10T08:23:00.000Z,98551
2018-11-10T08:28:00.000Z,98541
2018-11-10T08:33:00.000Z,98545
2018-11-10T08:38:00.000Z,98551
2018-11-10T08:43:00.000Z,98543
2018-11-10T08:48:00.000Z,98539
2018-11-10T08:53:00.000Z,98541
2018-11-10T08:58:00.000Z,98541
2018-11-10T09:03:00.000Z,98550
2018-11-10T09:08:00.000Z,98540
2018-11-10T09:13:00.000Z,98554
2018-11-10T09:18:00.000Z,98560
2018-11-10T09:23:00.000Z,98555
2018-11-10T09:28:00.000Z,98552
2018-11-10T09:33:00.000Z,98556
2018-11-10T09:38:00.000Z,98553
2018-11-10T09:43:00.000Z,98548
2018-11-10T09:48:00.000Z,98538
2018-11-10T09:53:00.000Z,98545
2018-11-10T09:58:00.000Z,98544
2018-11-10T10:03:00.000Z,98539
2018-11-10T10:08:00.000Z,98533
2018-11-10T10:13:00.000Z,98533
2018-11-10T10:18:00.000Z,98535
2018-11-10T10:23:00.000Z,98519
2018-11-10T10:28:00.000Z,98514
2018-11-10T10:33:00.000Z,98519
2018-11-10T10:38:00.000Z,98508
2018-11-10T10:43:00.000Z,98492
2018-11-10T10:48:00.000Z,98500
2018-11-10T10:53:00.000Z,98497
2018-11-10T10:58:00.000Z,98500
2018-11-10T11:03:00.000Z,98510
2018-11-10T11:08:00.000Z,98484
2018-11-10T11:13:00.000Z,98485
2018-11-10T11:18:00.000Z,98490
2018-11-10T11:23:00.000Z,98473
2018-11-10T11:28:00.000Z,98471
2018-11-10T11:33:00.000Z,98467
2018-11-10T11:38:00.000Z,98466
2018-11-10T11:43:00.000Z,98471
2018-11-10T11:48:00.000Z,98469
2018-11-10T11:53:00.000Z,98459
2018-11-10T11:58:00.000Z,98459
2018-11-10T12:03:00.000Z,98462
2018-11-10T12:08:00.000Z,98459
2018-11-10T12:13:00.000Z,98448
2018-11-10T12:18:00.000Z,98449
2018-11-10T12:23:00.000Z,98436
2018-11-10T12:28:00.000Z,98447
2018-11-10T12:33:00.000Z,98443
2018-11-10T12:38:00.000Z,98443
2018-11-10T12:43:00.000Z,98437
2018-11-10T12:48:00.000Z,98432
2018-11-10T12:53:00.000Z,98427
2018-11-10T12:58:00.000Z,98424
2018-11-10T13:03:00.000Z,98417
2018-11-10T13:08:00.000Z,98416
2018-11-10T13:13:00.000Z,98423
2018-11-10T13:18:00.000Z,98418
2018-11-10T13:23:00.000Z,98425
2018-11-10T13:28:00.000Z,98418
2018-11-10T13:33:00.000Z,98409
2018-11-10T13:38:00.000Z,98414
2018-11-10T13:43:00.000Z,98421
2018-11-10T13:48:00.000Z,98407
2018-11-10T13:53:00.000Z,98414
2018-11-10T13:58:00.000Z,98414
2018-11-10T14:03:00.000Z,98413
2018-11-10T14:08:00.000Z,98401
2018-11-10T14:13:00.000Z,98392
2018-11-10T14:18:00.000Z,98399
2018-11-10T14:24:00.000Z,98401
2018-11-10T14:29:00.000Z,98401
2018-11-10T14:34:00.000Z,98410
2018-11-10T14:39:00.000Z,98403
2018-11-10T14:44:00.000Z,98406
2018-11-10T14:49:00.000Z,98408
2018-11-10T14:54:00.000Z,98406
2018-11-10T14:59:00.000Z,98399
2018-11-10T15:04:00.000Z,98404
2018-11-10T15:09:00.000Z,98400
2018-11-10T15:14:00.000Z,98410
2018-11-10T15:19:00.000Z,98412
2018-11-10T15:24:00.000Z,98403
2018-11-10T15:29:00.000Z,98415
2018-11-10T15:34:00.000Z,98420
2018-11-10T15:39:00.000Z,98424
2018-11-10T15:44:00.000Z,98423
2018-11-10T15:49:00.000Z,98428
2018-11-10T15:54:00.000Z,98426
2018-11-10T15:59:00.000Z,98437
2018-11-10T16:04:00.000Z,98429
2018-11-10T16:09:00.000Z,98440
2018-11-10T16:14:00.000Z,98446
2018-11-10T16:19:00.000Z,98443
2018-11-10T16:24:00.000Z,98446
2018-11-10T16:29:00.000Z,98440
2018-11-10T16:34:00.000Z,98440
2018-11-10T16:39:00.000Z,98444
2018-11-10T16:44:00.000Z,98446
2018-11-10T16:49:00.000Z,98445
2018-11-10T16:54:00.000Z,98445
2018-11-10T16:59:00.000Z,98455
2018-11-10T17:04:00.000Z,98449
2018-11-10T17:09:00.000Z,98453
2018-11-10T17:14:00.000Z,98457
2018-11-10T17:19:00.000Z,98448
2018-11-10T17:24:00.000Z,98441
2018-11-10T17:29:00.000Z,98451
2018-11-10T17:34:00.000Z,98454
2018-11-10T17:39:00.000Z,98443
2018-11-10T17:44:00.000Z,98447
2018-11-10T17:49:00.000Z,98438
2018-11-10T17:54:00.000Z,98444
2018-11-10T17:59:00.000Z,98449
2018-11-10T18:04:00.000Z,98454
2018-11-10T18:09:00.000Z,98453
2018-11-10T18:14:00.000Z,98450
2018-11-10T18:19:00.000Z,98437
2018-11-10T18:24:00.000Z,98437
2018-11-10T18:29:00.000Z,98443
2018-11-10T18:34:00.000Z,98431
2018-11-10T18:39:00.000Z,98436
2018-11-10T18:44:00.000Z,98432
2018-11-10T18:49:00.000Z,98434
2018-11-10T18:54:00.000Z,98432
2018-11-10T18:59:00.000Z,98430
2018-11-10T19:04:00.000Z,98433
2018-11-10T19:09:00.000Z,98432
2018-11-10T19:14:00.000Z,98436
2018-11-10T19:19:00.000Z,98428
2018-11-10T19:24:00.000Z,98434
2018-11-10T19:29:00.000Z,98437
2018-11-10T19:34:00.000Z,98433
2018-11-10T19:39:00.000Z,98433
2018-11-10T19:44:00.000Z,98450
2018-11-10T19:49:00.000Z,98441
2018-11-10T19:54:00.000Z,98444
2018-11-10T19:59:00.000Z,98434
2018-11-10T20:04:00.000Z,98434
2018-11-10T20:09:00.000Z,98431
2018-11-10T20:14:00.000Z,98430
2018-11-10T20:20:00.000Z,98435
2018-11-10T20:25:00.000Z,98428
2018-11-10T20:30:00.000Z,98429
2018-11-10T20:35:00.000Z,98427
2018-11-10T20:40:00.000Z,98423
2018-11-10T20:45:00.000Z,98431
2018-11-10T20:50:00.000Z,98421
2018-11-10T20:55:00.000Z,98420
2018-11-10T21:00:00.000Z,98423
2018-11-10T21:05:00.000Z,98411
2018-11-10T21:10:00.000Z,98421
2018-11-10T21:15:00.000Z,98417
2018-11-10T21:20:00.000Z,98425
2018-11-10T21:25:00.000Z,98410
2018-11-10T21:30:00.000Z,98417
2018-11-10T21:35:00.000Z,98417
2018-11-10T21:40:00.000Z,98416
2018-11-10T21:45:00.000Z,98402
2018-11-10T21:50:00.000Z,98394
2018-11-10T21:55:00.000Z,98398
2018-11-10T22:00:00.000Z,98405
2018-11-10T22:05:00.000Z,98397
2018-11-10T22:10:00.000Z,98396
2018-11-10T22:15:00.000Z,98399
2018-11-10T22:20:00.000Z,98392
2018-11-10T22:25:00.000Z,98395
2018-11-10T22:30:00.000Z,98398
2018-11-10T22:35:00.000Z,98389
2018-11-10T22:40:00.000Z,98387
2018-11-10T22:45:00.000Z,98393
2018-11-10T22:50:00.000Z,98393
2018-11-10T22:55:00.000Z,98387
2018-11-10T23:00:00.000Z,98383
2018-11-10T23:05:00.000Z,98394
2018-11-10T23:10:00.000Z,98386
2018-11-10T23:15:00.000Z,98382
2018-11-10T23:20:00.000Z,98384
2018-11-10T23:25:00.000Z,98373
2018-11-10T23:30:00.000Z,98379
2018-11-10T23:35:00.000Z,98380
2018-11-10T23:40:00.000Z,98364
2018-11-10T23:45:00.000Z,98372
2018-11-10T23:50:00.000Z,98376
2018-11-10T23:55:00.000Z,98375
